createdAt,value
2019-06-26T00:01:18.825Z,27.40
2019-06-26T00:03:48.241Z,27.50
2019-06-26T00:06:17.648Z,27.40
2019-06-26T00:08:46.989Z,27.40
2019-06-26T00:11:16.421Z,27.40
2019-06-26T00:13:45.746Z,27.40
2019-06-26T00:16:15.124Z,27.40
2019-06-26T00:18:44.576Z,27.40
2019-06-26T00:21:13.991Z,27.40
2019-06-26T00:23:43.355Z,27.40
2019-06-26T00:26:12.784Z,27.40
2019-06-26T00:28:42.208Z,27.40
2019-06-26T00:31:11.518Z,27.30
2019-06-26T00:33:40.906Z,27.30
2019-06-26T00:36:10.310Z,27.30
2019-06-26T00:38:40.233Z,27.30
2019-06-26T00:41:09.945Z,27.30
2019-06-26T00:43:42.607Z,27.20
2019-06-26T00:46:10.520Z,27.20
2019-06-26T00:48:39.925Z,27.20
2019-06-26T00:51:09.322Z,27.20
2019-06-26T00:53:38.745Z,27.20
2019-06-26T00:56:08.195Z,27.20
2019-06-26T00:58:37.586Z,27.20
2019-06-26T01:01:07.014Z,27.20
2019-06-26T01:03:36.460Z,27.10
2019-06-26T01:06:07.475Z,27.10
2019-06-26T01:08:36.839Z,27.10
2019-06-26T01:11:06.278Z,27.10
2019-06-26T01:13:35.706Z,27.10
2019-06-26T01:16:05.045Z,27.10
2019-06-26T01:18:34.511Z,27.10
2019-06-26T01:21:03.950Z,27.00
2019-06-26T01:23:33.392Z,27.00
2019-06-26T01:26:02.858Z,27.00
2019-06-26T01:28:32.307Z,27.00
2019-06-26T01:31:01.712Z,27.00
2019-06-26T01:33:31.190Z,27.00
2019-06-26T01:36:00.570Z,27.00
2019-06-26T01:38:30.024Z,27.00
2019-06-26T01:40:59.433Z,27.00
2019-06-26T01:43:28.800Z,27.00
2019-06-26T01:45:58.136Z,26.90
2019-06-26T01:48:27.500Z,26.90
2019-06-26T01:50:56.944Z,26.90
2019-06-26T01:53:26.302Z,26.90
2019-06-26T01:55:55.707Z,26.80
2019-06-26T01:58:25.127Z,26.80
2019-06-26T02:00:54.546Z,26.80
2019-06-26T02:03:23.929Z,26.80
2019-06-26T02:05:53.382Z,26.80
2019-06-26T02:08:22.858Z,26.80
2019-06-26T02:10:52.301Z,26.80
2019-06-26T02:13:21.785Z,26.80
2019-06-26T02:15:51.193Z,26.80
2019-06-26T02:18:36.591Z,26.70
2019-06-26T02:21:05.995Z,26.80
2019-06-26T02:23:35.437Z,26.70
2019-06-26T02:26:04.973Z,26.70
2019-06-26T02:28:34.312Z,26.70
2019-06-26T02:31:03.706Z,26.70
2019-06-26T02:33:33.134Z,26.60
2019-06-26T02:36:02.700Z,26.60
2019-06-26T02:38:32.087Z,26.60
2019-06-26T02:41:01.431Z,26.60
2019-06-26T02:43:31.158Z,26.60
2019-06-26T02:46:00.576Z,26.60
2019-06-26T02:48:30.061Z,26.50
2019-06-26T02:50:59.486Z,26.50
2019-06-26T02:53:28.918Z,26.50
2019-06-26T02:55:58.365Z,26.50
2019-06-26T02:58:27.709Z,26.50
2019-06-26T03:00:57.166Z,26.50
2019-06-26T03:03:26.631Z,26.50
2019-06-26T03:05:56.093Z,26.40
2019-06-26T03:08:25.525Z,26.40
2019-06-26T03:10:55.045Z,26.50
2019-06-26T03:13:24.488Z,26.50
2019-06-26T03:15:54.036Z,26.50
2019-06-26T03:18:23.450Z,26.50
2019-06-26T03:20:55.803Z,26.50
2019-06-26T03:23:25.542Z,26.50
2019-06-26T03:25:55.063Z,26.50
2019-06-26T03:28:24.503Z,26.50
2019-06-26T03:30:53.947Z,26.50
2019-06-26T03:33:23.356Z,26.50
2019-06-26T03:35:52.819Z,26.50
2019-06-26T03:38:22.258Z,26.50
2019-06-26T03:40:51.738Z,26.50
2019-06-26T03:43:21.236Z,26.50
2019-06-26T03:45:50.683Z,26.50
2019-06-26T03:48:20.153Z,26.50
2019-06-26T03:50:49.557Z,26.50
2019-06-26T03:53:18.998Z,26.50
2019-06-26T03:55:48.465Z,26.50
2019-06-26T03:58:17.829Z,26.50
2019-06-26T04:00:47.329Z,26.50
2019-06-26T04:03:16.835Z,26.50
2019-06-26T04:05:46.293Z,26.50
2019-06-26T04:08:15.751Z,26.50
2019-06-26T04:10:45.211Z,26.50
2019-06-26T04:13:14.612Z,26.60
2019-06-26T04:15:44.118Z,26.60
2019-06-26T04:18:13.580Z,26.60
2019-06-26T04:20:43.027Z,26.70
2019-06-26T04:23:12.486Z,26.70
2019-06-26T04:25:41.969Z,26.70
2019-06-26T04:28:11.479Z,26.80
2019-06-26T04:30:40.959Z,26.90
2019-06-26T04:33:10.427Z,27.00
2019-06-26T04:35:39.877Z,27.10
2019-06-26T04:38:09.280Z,27.20
2019-06-26T04:40:38.743Z,27.40
2019-06-26T04:43:08.205Z,27.50
2019-06-26T04:45:37.783Z,27.70
2019-06-26T04:48:07.600Z,28.00
2019-06-26T04:50:37.573Z,28.50
2019-06-26T04:53:07.714Z,29.00
2019-06-26T04:55:37.199Z,29.40
2019-06-26T04:58:06.706Z,29.90
2019-06-26T05:00:36.205Z,30.40
2019-06-26T05:03:06.221Z,30.80
2019-06-26T05:05:39.805Z,31.30
2019-06-26T05:08:06.797Z,31.70
2019-06-26T05:10:36.228Z,32.10
2019-06-26T05:13:05.692Z,32.50
2019-06-26T05:15:35.106Z,32.90
2019-06-26T05:18:04.596Z,33.40
2019-06-26T05:20:34.020Z,33.80
2019-06-26T05:23:03.384Z,34.30
2019-06-26T05:25:32.783Z,34.80
2019-06-26T05:28:02.186Z,35.20
2019-06-26T05:30:31.656Z,35.70
2019-06-26T05:33:01.025Z,36.10
2019-06-26T05:35:30.498Z,36.50
2019-06-26T05:38:00.203Z,36.90
2019-06-26T05:40:29.604Z,37.30
2019-06-26T05:42:59.102Z,37.70
2019-06-26T05:45:28.549Z,38.20
2019-06-26T05:47:57.961Z,38.50
2019-06-26T05:50:27.522Z,38.90
2019-06-26T05:52:57.014Z,39.10
2019-06-26T05:55:26.353Z,39.50
2019-06-26T05:57:55.722Z,39.70
2019-06-26T06:00:25.258Z,40.00
2019-06-26T06:02:54.744Z,40.10
2019-06-26T06:05:24.198Z,40.00
2019-06-26T06:07:53.585Z,39.70
2019-06-26T06:10:23.032Z,39.10
2019-06-26T06:12:52.474Z,38.50
2019-06-26T06:15:21.856Z,38.00
2019-06-26T06:17:51.229Z,37.50
2019-06-26T06:20:27.803Z,36.90
2019-06-26T06:22:57.210Z,36.40
2019-06-26T06:25:26.615Z,36.00
2019-06-26T06:27:56.082Z,35.60
2019-06-26T06:30:25.495Z,35.30
2019-06-26T06:32:54.902Z,34.90
2019-06-26T06:35:24.274Z,34.50
2019-06-26T06:37:53.662Z,34.30
2019-06-26T06:40:23.205Z,34.10
2019-06-26T06:42:52.889Z,33.90
2019-06-26T06:45:22.724Z,33.60
2019-06-26T06:47:52.087Z,33.30
2019-06-26T06:50:21.540Z,33.20
2019-06-26T06:52:51.061Z,33.10
2019-06-26T06:55:21.175Z,33.10
2019-06-26T06:57:50.616Z,32.90
2019-06-26T07:00:20.372Z,32.80
2019-06-26T07:02:49.815Z,32.80
2019-06-26T07:05:19.311Z,32.70
2019-06-26T07:07:48.770Z,32.60
2019-06-26T07:10:18.641Z,32.50
2019-06-26T07:12:48.045Z,32.50
2019-06-26T07:15:17.983Z,32.50
2019-06-26T07:17:47.455Z,32.50
2019-06-26T07:20:17.012Z,32.40
2019-06-26T07:22:46.459Z,32.30
2019-06-26T07:25:15.998Z,32.30
2019-06-26T07:27:45.434Z,32.20
2019-06-26T07:30:16.312Z,32.10
2019-06-26T07:32:45.707Z,32.10
2019-06-26T07:35:15.210Z,32.10
2019-06-26T07:37:44.697Z,32.10
2019-06-26T07:40:14.670Z,32.10
2019-06-26T07:42:44.147Z,32.10
2019-06-26T07:45:13.672Z,32.00
2019-06-26T07:47:44.369Z,32.00
2019-06-26T07:50:14.549Z,32.00
2019-06-26T07:52:43.959Z,32.00
2019-06-26T07:55:13.855Z,31.90
2019-06-26T07:57:43.266Z,31.80
2019-06-26T08:00:13.155Z,31.80
2019-06-26T08:02:42.544Z,31.60
2019-06-26T08:05:12.116Z,31.60
2019-06-26T08:07:41.517Z,31.60
2019-06-26T08:10:11.254Z,31.70
2019-06-26T08:12:40.676Z,31.70
2019-06-26T08:15:10.517Z,31.80
2019-06-26T08:17:39.847Z,31.80
2019-06-26T08:20:10.031Z,31.70
2019-06-26T08:22:39.445Z,31.60
2019-06-26T08:25:09.724Z,31.50
2019-06-26T08:27:39.219Z,31.50
2019-06-26T08:30:09.257Z,31.60
2019-06-26T08:32:38.786Z,31.50
2019-06-26T08:35:08.771Z,31.50
2019-06-26T08:37:38.131Z,31.40
2019-06-26T08:40:08.050Z,31.40
2019-06-26T08:42:37.509Z,31.30
2019-06-26T08:45:07.476Z,31.30
2019-06-26T08:47:36.911Z,31.30
2019-06-26T08:50:06.490Z,31.30
2019-06-26T08:52:35.878Z,31.30
2019-06-26T08:55:06.114Z,31.30
2019-06-26T08:57:35.577Z,31.40
2019-06-26T09:00:05.767Z,31.40
2019-06-26T09:02:35.189Z,31.50
2019-06-26T09:05:05.359Z,31.50
2019-06-26T09:07:34.805Z,31.50
2019-06-26T09:10:04.819Z,31.40
2019-06-26T09:12:34.305Z,31.50
2019-06-26T09:15:03.916Z,31.50
2019-06-26T09:17:33.652Z,31.50
2019-06-26T09:20:03.124Z,31.60
2019-06-26T09:22:32.573Z,31.60
2019-06-26T09:25:16.751Z,31.50
2019-06-26T09:27:33.072Z,31.50
2019-06-26T09:30:02.520Z,31.50
2019-06-26T09:32:31.960Z,31.50
2019-06-26T09:35:01.432Z,31.40
2019-06-26T09:37:30.828Z,31.40
2019-06-26T09:40:00.360Z,31.40
2019-06-26T09:42:29.985Z,31.40
2019-06-26T09:44:59.423Z,31.50
2019-06-26T09:47:31.057Z,31.50
2019-06-26T09:49:59.955Z,31.60
2019-06-26T09:52:29.770Z,31.60
2019-06-26T09:54:59.168Z,31.50
2019-06-26T09:57:28.595Z,31.50
2019-06-26T09:59:58.046Z,31.50
2019-06-26T10:02:27.526Z,31.50
2019-06-26T10:04:56.922Z,31.60
2019-06-26T10:07:26.367Z,31.60
2019-06-26T10:09:55.930Z,31.60
2019-06-26T10:12:25.595Z,31.60
2019-06-26T10:14:54.957Z,31.60
2019-06-26T10:17:24.486Z,31.70
2019-06-26T10:19:54.264Z,31.70
2019-06-26T10:22:23.999Z,31.70
2019-06-26T10:24:53.412Z,31.70
2019-06-26T10:27:22.866Z,31.70
2019-06-26T10:29:52.346Z,31.70
2019-06-26T10:32:21.800Z,31.70
2019-06-26T10:34:51.176Z,31.70
2019-06-26T10:37:20.565Z,31.70
2019-06-26T10:39:50.061Z,31.80
2019-06-26T10:42:19.480Z,31.80
2019-06-26T10:44:48.907Z,31.80
2019-06-26T10:47:18.364Z,31.80
2019-06-26T10:49:47.718Z,31.90
2019-06-26T10:52:17.252Z,32.00
2019-06-26T10:54:46.675Z,32.00
2019-06-26T10:57:16.139Z,32.00
2019-06-26T10:59:45.590Z,31.90
2019-06-26T11:02:16.920Z,31.90
2019-06-26T11:04:46.375Z,31.90
2019-06-26T11:07:15.866Z,31.80
2019-06-26T11:09:45.341Z,31.80
2019-06-26T11:12:14.836Z,31.90
2019-06-26T11:14:44.290Z,31.90
2019-06-26T11:17:13.786Z,32.00
2019-06-26T11:19:44.545Z,31.90
2019-06-26T11:22:14.371Z,32.00
2019-06-26T11:24:43.837Z,32.00
2019-06-26T11:27:13.582Z,32.00
2019-06-26T11:29:43.059Z,32.00
2019-06-26T11:32:12.510Z,32.00
2019-06-26T11:34:41.955Z,32.00
2019-06-26T11:37:11.297Z,32.00
2019-06-26T11:39:40.760Z,32.00
2019-06-26T11:42:10.201Z,31.90
2019-06-26T11:44:39.657Z,32.00
2019-06-26T11:47:08.980Z,31.90
2019-06-26T11:49:38.340Z,31.90
2019-06-26T11:52:07.798Z,31.90
2019-06-26T11:54:37.169Z,32.00
2019-06-26T11:57:06.529Z,32.00
2019-06-26T11:59:35.944Z,32.00
2019-06-26T12:02:05.531Z,32.00
2019-06-26T12:04:34.943Z,32.00
2019-06-26T12:07:04.331Z,32.00
2019-06-26T12:09:33.765Z,32.00
2019-06-26T12:12:03.163Z,32.00
2019-06-26T12:14:32.528Z,32.10
2019-06-26T12:17:01.983Z,32.00
2019-06-26T12:19:31.412Z,32.00
2019-06-26T12:22:00.772Z,32.10
2019-06-26T12:24:30.209Z,32.10
2019-06-26T12:26:59.616Z,32.00
2019-06-26T12:29:32.664Z,32.00
2019-06-26T12:32:00.249Z,32.00
2019-06-26T12:34:29.646Z,32.00
2019-06-26T12:36:59.036Z,32.00
2019-06-26T12:39:28.431Z,32.00
2019-06-26T12:41:57.871Z,32.10
2019-06-26T12:44:27.266Z,32.00
2019-06-26T12:46:56.655Z,32.10
2019-06-26T12:49:26.063Z,32.10
2019-06-26T12:51:55.469Z,32.20
2019-06-26T12:54:24.964Z,32.20
2019-06-26T12:56:54.464Z,32.20
2019-06-26T12:59:23.879Z,32.20
2019-06-26T13:01:53.317Z,32.20
2019-06-26T13:04:22.754Z,32.20
2019-06-26T13:06:52.224Z,32.30
2019-06-26T13:09:21.659Z,32.20
2019-06-26T13:11:51.100Z,32.30
2019-06-26T13:14:20.605Z,32.40
2019-06-26T13:16:50.036Z,32.40
2019-06-26T13:19:19.717Z,32.40
2019-06-26T13:21:49.139Z,32.40
2019-06-26T13:24:18.546Z,32.40
2019-06-26T13:26:47.902Z,32.30
2019-06-26T13:29:17.314Z,32.30
2019-06-26T13:31:46.739Z,32.30
2019-06-26T13:34:16.197Z,32.40
2019-06-26T13:36:45.659Z,32.30
2019-06-26T13:39:15.160Z,32.40
2019-06-26T13:41:44.596Z,32.40
2019-06-26T13:44:14.174Z,32.50
2019-06-26T13:46:43.608Z,32.50
2019-06-26T13:49:16.390Z,32.50
2019-06-26T13:51:44.122Z,32.50
2019-06-26T13:54:13.590Z,32.50
2019-06-26T13:56:42.911Z,32.50
2019-06-26T13:59:12.283Z,32.50
2019-06-26T14:01:41.600Z,32.50
2019-06-26T14:04:10.954Z,32.50
2019-06-26T14:06:40.385Z,32.50
2019-06-26T14:09:10.662Z,32.50
2019-06-26T14:11:40.112Z,32.50
2019-06-26T14:14:09.529Z,32.50
2019-06-26T14:16:38.918Z,32.50
2019-06-26T14:19:08.389Z,32.50
2019-06-26T14:21:37.793Z,32.50
2019-06-26T14:24:07.207Z,32.50
2019-06-26T14:26:36.634Z,32.50
2019-06-26T14:29:20.078Z,32.50
2019-06-26T14:31:37.068Z,32.50
2019-06-26T14:34:06.487Z,32.60
2019-06-26T14:36:35.947Z,32.60
2019-06-26T14:39:07.765Z,32.60
2019-06-26T14:41:39.222Z,32.60
2019-06-26T14:44:08.267Z,32.60
2019-06-26T14:46:37.695Z,32.60
2019-06-26T14:49:07.151Z,32.70
2019-06-26T14:51:43.981Z,32.70
2019-06-26T14:54:07.638Z,32.70
2019-06-26T14:56:37.022Z,32.70
2019-06-26T14:59:06.426Z,32.60
2019-06-26T15:01:35.930Z,32.70
2019-06-26T15:04:05.346Z,32.70
2019-06-26T15:06:34.776Z,32.70
2019-06-26T15:09:05.208Z,32.70
2019-06-26T15:11:34.581Z,32.70
2019-06-26T15:14:04.147Z,32.70
2019-06-26T15:16:33.531Z,32.70
2019-06-26T15:19:02.989Z,32.70
2019-06-26T15:21:32.426Z,32.70
2019-06-26T15:24:01.852Z,32.70
2019-06-26T15:26:31.356Z,32.70
2019-06-26T15:29:00.812Z,32.70
2019-06-26T15:31:30.212Z,32.70
2019-06-26T15:33:59.651Z,32.70
2019-06-26T15:36:29.105Z,32.70
2019-06-26T15:38:59.332Z,32.70
2019-06-26T15:41:29.204Z,32.70
2019-06-26T15:43:58.644Z,32.70
2019-06-26T15:46:28.133Z,32.70
2019-06-26T15:48:57.575Z,32.70
2019-06-26T15:51:27.022Z,32.70
2019-06-26T15:53:59.865Z,32.70
2019-06-26T15:56:27.839Z,32.70
2019-06-26T15:58:57.229Z,32.80
2019-06-26T16:01:26.745Z,32.80
2019-06-26T16:03:56.110Z,32.80
2019-06-26T16:06:25.540Z,32.70
2019-06-26T16:08:54.969Z,32.70
2019-06-26T16:11:24.470Z,32.70
2019-06-26T16:13:53.941Z,32.70
2019-06-26T16:16:24.297Z,32.80
2019-06-26T16:18:59.469Z,32.70
2019-06-26T16:21:28.958Z,32.70
2019-06-26T16:23:58.297Z,32.70
2019-06-26T16:26:27.668Z,32.70
2019-06-26T16:28:57.123Z,32.70
2019-06-26T16:31:26.619Z,32.70
2019-06-26T16:33:56.097Z,32.70
2019-06-26T16:36:25.524Z,32.70
2019-06-26T16:38:55.029Z,32.70
2019-06-26T16:41:24.500Z,32.70
2019-06-26T16:43:53.984Z,32.70
2019-06-26T16:46:23.392Z,32.60
2019-06-26T16:48:52.842Z,32.60
2019-06-26T16:51:22.243Z,32.60
2019-06-26T16:53:51.815Z,32.60
2019-06-26T16:56:21.286Z,32.60
2019-06-26T16:58:50.725Z,32.60
2019-06-26T17:01:20.192Z,32.60
2019-06-26T17:03:49.615Z,32.50
2019-06-26T17:06:19.066Z,32.50
2019-06-26T17:08:48.505Z,32.50
2019-06-26T17:11:17.948Z,32.50
2019-06-26T17:13:47.329Z,32.50
2019-06-26T17:16:16.736Z,32.50
2019-06-26T17:18:46.174Z,32.40
2019-06-26T17:21:15.621Z,32.40
2019-06-26T17:23:44.986Z,32.40
2019-06-26T17:26:14.359Z,32.40
2019-06-26T17:28:43.742Z,32.30
2019-06-26T17:31:13.184Z,32.30
2019-06-26T17:33:42.623Z,32.30
2019-06-26T17:36:12.091Z,32.30
2019-06-26T17:38:41.540Z,32.20
2019-06-26T17:41:11.015Z,32.20
2019-06-26T17:43:40.456Z,32.20
2019-06-26T17:46:09.804Z,32.20
2019-06-26T17:48:39.123Z,32.20
2019-06-26T17:51:09.319Z,32.10
2019-06-26T17:53:38.714Z,32.10
2019-06-26T17:56:08.208Z,32.10
2019-06-26T17:58:37.652Z,32.10
2019-06-26T18:01:07.211Z,32.10
2019-06-26T18:03:36.666Z,32.10
2019-06-26T18:06:06.041Z,32.00
2019-06-26T18:08:35.451Z,32.00
2019-06-26T18:11:04.914Z,32.00
2019-06-26T18:13:34.359Z,31.90
2019-06-26T18:16:03.845Z,31.90
2019-06-26T18:18:33.342Z,31.80
2019-06-26T18:21:02.754Z,31.80
2019-06-26T18:23:37.850Z,31.70
2019-06-26T18:26:13.057Z,31.70
2019-06-26T18:28:34.370Z,31.60
2019-06-26T18:31:03.867Z,31.60
2019-06-26T18:33:33.285Z,31.60
2019-06-26T18:36:02.793Z,31.60
2019-06-26T18:38:32.250Z,31.50
2019-06-26T18:41:01.758Z,31.50
2019-06-26T18:43:31.357Z,31.50
2019-06-26T18:46:00.812Z,31.50
2019-06-26T18:48:30.178Z,31.40
2019-06-26T18:50:59.613Z,31.40
2019-06-26T18:53:29.052Z,31.30
2019-06-26T18:55:58.536Z,31.30
2019-06-26T18:58:30.775Z,31.30
2019-06-26T19:00:59.134Z,31.20
2019-06-26T19:03:28.596Z,31.20
2019-06-26T19:05:58.093Z,31.10
2019-06-26T19:08:27.550Z,31.10
2019-06-26T19:10:57.150Z,31.10
2019-06-26T19:13:26.622Z,31.00
2019-06-26T19:15:56.151Z,31.00
2019-06-26T19:18:25.602Z,31.00
2019-06-26T19:20:55.165Z,30.90
2019-06-26T19:23:24.593Z,30.90
2019-06-26T19:25:54.046Z,30.90
2019-06-26T19:28:23.473Z,30.80
2019-06-26T19:30:52.890Z,30.80
2019-06-26T19:33:22.364Z,30.80
2019-06-26T19:35:51.930Z,30.70
2019-06-26T19:38:21.494Z,30.70
2019-06-26T19:40:50.973Z,30.70
2019-06-26T19:43:20.377Z,30.70
2019-06-26T19:45:49.787Z,30.60
2019-06-26T19:48:19.230Z,30.60
2019-06-26T19:50:48.659Z,30.60
2019-06-26T19:53:18.099Z,30.50
2019-06-26T19:55:47.465Z,30.50
2019-06-26T19:58:21.197Z,30.50
2019-06-26T20:00:48.146Z,30.50
2019-06-26T20:03:17.594Z,30.50
2019-06-26T20:05:47.015Z,30.40
2019-06-26T20:08:16.363Z,30.40
2019-06-26T20:10:45.813Z,30.40
2019-06-26T20:13:15.166Z,30.30
2019-06-26T20:15:44.606Z,30.30
2019-06-26T20:18:14.069Z,30.30
2019-06-26T20:20:43.431Z,30.20
2019-06-26T20:23:12.878Z,30.20
2019-06-26T20:25:42.337Z,30.20
2019-06-26T20:28:11.815Z,30.20
2019-06-26T20:30:41.243Z,30.10
2019-06-26T20:33:10.675Z,30.10
2019-06-26T20:35:40.066Z,30.10
2019-06-26T20:38:09.478Z,30.10
2019-06-26T20:40:39.842Z,30.10
2019-06-26T20:43:09.260Z,30.00
2019-06-26T20:45:38.600Z,30.00
2019-06-26T20:48:08.304Z,29.90
2019-06-26T20:50:37.683Z,29.90
2019-06-26T20:53:07.119Z,29.90
2019-06-26T20:55:36.567Z,29.90
2019-06-26T20:58:06.006Z,29.80
2019-06-26T21:00:35.475Z,29.80
2019-06-26T21:03:04.932Z,29.80
2019-06-26T21:05:34.351Z,29.80
2019-06-26T21:08:03.835Z,29.70
2019-06-26T21:10:33.209Z,29.70
2019-06-26T21:13:02.845Z,29.70
2019-06-26T21:15:32.254Z,29.70
2019-06-26T21:18:01.588Z,29.70
2019-06-26T21:20:30.981Z,29.70
2019-06-26T21:23:00.442Z,29.70
2019-06-26T21:25:29.835Z,29.70
2019-06-26T21:27:59.236Z,29.60
2019-06-26T21:30:28.589Z,29.60
2019-06-26T21:32:58.038Z,29.60
2019-06-26T21:35:27.495Z,29.60
2019-06-26T21:37:56.904Z,29.60
2019-06-26T21:40:26.285Z,29.60
2019-06-26T21:42:55.607Z,29.60
2019-06-26T21:45:24.949Z,29.60
2019-06-26T21:47:54.399Z,29.50
2019-06-26T21:50:23.816Z,29.50
2019-06-26T21:52:53.867Z,29.50
2019-06-26T21:55:33.751Z,29.50
2019-06-26T21:57:54.412Z,29.50
2019-06-26T22:00:24.778Z,29.50
2019-06-26T22:02:57.610Z,29.40
2019-06-26T22:05:26.244Z,29.40
2019-06-26T22:07:55.623Z,29.40
2019-06-26T22:10:25.034Z,29.40
2019-06-26T22:12:54.454Z,29.40
2019-06-26T22:15:23.810Z,29.40
2019-06-26T22:17:53.197Z,29.40
2019-06-26T22:20:22.734Z,29.30
2019-06-26T22:22:52.165Z,29.30
2019-06-26T22:25:21.879Z,29.30
2019-06-26T22:27:51.274Z,29.30
2019-06-26T22:30:21.104Z,29.30
2019-06-26T22:32:50.541Z,29.30
2019-06-26T22:35:19.899Z,29.20
2019-06-26T22:37:49.310Z,29.20
2019-06-26T22:40:18.750Z,29.20
2019-06-26T22:42:48.165Z,29.20
2019-06-26T22:45:17.854Z,29.20
2019-06-26T22:47:47.308Z,29.10
2019-06-26T22:50:16.810Z,29.10
2019-06-26T22:52:46.284Z,29.10
2019-06-26T22:55:15.718Z,29.10
2019-06-26T22:57:45.112Z,29.10
2019-06-26T23:00:15.710Z,29.10
2019-06-26T23:02:45.246Z,29.10
2019-06-26T23:05:14.797Z,29.10
2019-06-26T23:07:44.271Z,29.10
2019-06-26T23:10:14.387Z,29.00
2019-06-26T23:12:43.755Z,29.00
2019-06-26T23:15:14.511Z,29.00
2019-06-26T23:17:43.941Z,29.00
2019-06-26T23:20:13.514Z,29.00
2019-06-26T23:22:42.945Z,29.00
2019-06-26T23:25:12.686Z,28.90
2019-06-26T23:27:42.147Z,28.90
2019-06-26T23:30:19.495Z,28.90
2019-06-26T23:32:48.896Z,28.90
2019-06-26T23:35:18.279Z,28.90
2019-06-26T23:37:47.779Z,28.90
2019-06-26T23:40:17.331Z,28.90
2019-06-26T23:42:46.639Z,28.90
2019-06-26T23:45:15.952Z,28.80
2019-06-26T23:47:45.355Z,28.80
2019-06-26T23:50:14.691Z,28.80
2019-06-26T23:52:44.141Z,28.80
2019-06-26T23:55:13.465Z,28.80
2019-06-26T23:57:58.018Z,28.80
